CKJ969 ZBSJ-ZHCC
Flight info
| Callsign | CKJ969 |
|---|---|
| Flight time | 0h 48m |
| Altitude | 38100 |
| Route | ADBES8ZD ADBES B215 VAGBI W45 SQ/K0833S1190 B208 NOPIN NOP7U |
| Aircraft | A20N/M-SDE2E3FGHIRWXY/LB1 |
Departure
| Time | 2026-05-04 18:46 |
|---|---|
| Airport | Shijiazhuang Zhengding International Airport (ZBSJ) |
Arrival
| Time | 2026-05-04 19:34 |
|---|---|
| Airport | Zhengzhou Xinzheng International Airport (ZHCC) |
| Time | Latitude | Longitude | Altitude | Speed | Heading |
|---|---|---|---|---|---|
| 2026-05-04 18:19 | 38.27993 | 114.69414 | 235 ft | 0 kts | 57° |
| 2026-05-04 18:37 | 38.27982 | 114.69392 | 235 ft | 4 kts | 57° |
| 2026-05-04 18:37 | 38.27968 | 114.69364 | 235 ft | 4 kts | 72° |
| 2026-05-04 18:38 | 38.27967 | 114.69356 | 240 ft | 3 kts | 147° |
| 2026-05-04 18:38 | 38.27983 | 114.69343 | 239 ft | 0 kts | 147° |
| 2026-05-04 18:41 | 38.27980 | 114.69345 | 238 ft | 2 kts | 147° |
| 2026-05-04 18:41 | 38.27957 | 114.69364 | 239 ft | 6 kts | 147° |
| 2026-05-04 18:42 | 38.27911 | 114.69402 | 237 ft | 10 kts | 147° |
| 2026-05-04 18:42 | 38.27844 | 114.69457 | 239 ft | 13 kts | 147° |
| 2026-05-04 18:42 | 38.27758 | 114.69527 | 237 ft | 16 kts | 147° |
| 2026-05-04 18:42 | 38.27741 | 114.69608 | 238 ft | 8 kts | 54° |
| 2026-05-04 18:43 | 38.27775 | 114.69688 | 236 ft | 12 kts | 96° |
| 2026-05-04 18:43 | 38.27708 | 114.69755 | 236 ft | 16 kts | 148° |
| 2026-05-04 18:43 | 38.27597 | 114.69846 | 238 ft | 26 kts | 148° |
| 2026-05-04 18:43 | 38.27379 | 114.70021 | 235 ft | 47 kts | 148° |
| 2026-05-04 18:44 | 38.27054 | 114.70286 | 236 ft | 60 kts | 147° |
| 2026-05-04 18:44 | 38.26833 | 114.70467 | 238 ft | 43 kts | 147° |
| 2026-05-04 18:44 | 38.26727 | 114.70619 | 235 ft | 8 kts | 91° |
| 2026-05-04 18:44 | 38.26756 | 114.70685 | 240 ft | 11 kts | 57° |
| 2026-05-04 18:45 | 38.26837 | 114.70724 | 237 ft | 16 kts | 336° |
| 2026-05-04 18:45 | 38.26909 | 114.70664 | 238 ft | 0 kts | 327° |
| 2026-05-04 18:45 | 38.26942 | 114.70637 | 238 ft | 28 kts | 327° |
| 2026-05-04 18:45 | 38.27345 | 114.70310 | 235 ft | 111 kts | 328° |
| 2026-05-04 18:46 | 38.28196 | 114.69619 | 269 ft | 174 kts | 327° |
| 2026-05-04 18:46 | 38.29271 | 114.68735 | 862 ft | 192 kts | 326° |
| 2026-05-04 18:46 | 38.30438 | 114.67878 | 1710 ft | 207 kts | 332° |
| 2026-05-04 18:46 | 38.31822 | 114.66995 | 2325 ft | 234 kts | 329° |
| 2026-05-04 18:47 | 38.33289 | 114.65898 | 3056 ft | 254 kts | 324° |
| 2026-05-04 18:47 | 38.34794 | 114.64661 | 4008 ft | 259 kts | 322° |
| 2026-05-04 18:47 | 38.36301 | 114.63380 | 4991 ft | 262 kts | 321° |
| 2026-05-04 18:47 | 38.37836 | 114.62060 | 5662 ft | 268 kts | 322° |
| 2026-05-04 18:48 | 38.39400 | 114.60718 | 6396 ft | 274 kts | 322° |
| 2026-05-04 18:48 | 38.40989 | 114.59360 | 7339 ft | 276 kts | 322° |
| 2026-05-04 18:48 | 38.42599 | 114.57986 | 8253 ft | 281 kts | 323° |
| 2026-05-04 18:48 | 38.44240 | 114.56588 | 9172 ft | 286 kts | 323° |
| 2026-05-04 18:49 | 38.45895 | 114.55147 | 10063 ft | 290 kts | 320° |
| 2026-05-04 18:49 | 38.47536 | 114.53545 | 10628 ft | 308 kts | 320° |
| 2026-05-04 18:49 | 38.49307 | 114.51818 | 10954 ft | 332 kts | 320° |
| 2026-05-04 18:49 | 38.51189 | 114.49993 | 11537 ft | 344 kts | 321° |
| 2026-05-04 18:50 | 38.53083 | 114.48105 | 12393 ft | 347 kts | 315° |
| 2026-05-04 18:50 | 38.54534 | 114.45668 | 13215 ft | 348 kts | 295° |
| 2026-05-04 18:50 | 38.55221 | 114.42711 | 13975 ft | 350 kts | 274° |
| 2026-05-04 18:50 | 38.55038 | 114.39622 | 14732 ft | 352 kts | 255° |
| 2026-05-04 18:51 | 38.54105 | 114.36718 | 15472 ft | 356 kts | 245° |
| 2026-05-04 18:51 | 38.53035 | 114.33846 | 16200 ft | 360 kts | 245° |
| 2026-05-04 18:51 | 38.51953 | 114.30941 | 16935 ft | 364 kts | 246° |
| 2026-05-04 18:51 | 38.50877 | 114.28038 | 17619 ft | 369 kts | 246° |
| 2026-05-04 18:52 | 38.49762 | 114.25021 | 18301 ft | 373 kts | 246° |
| 2026-05-04 18:52 | 38.48638 | 114.22009 | 18890 ft | 378 kts | 244° |
| 2026-05-04 18:52 | 38.47143 | 114.19209 | 19452 ft | 387 kts | 229° |
| 2026-05-04 18:52 | 38.45033 | 114.17024 | 20020 ft | 397 kts | 212° |
| 2026-05-04 18:53 | 38.42456 | 114.15686 | 20579 ft | 406 kts | 195° |
| 2026-05-04 18:53 | 38.39637 | 114.15206 | 21146 ft | 412 kts | 184° |
| 2026-05-04 18:53 | 38.36791 | 114.15097 | 21711 ft | 417 kts | 182° |
| 2026-05-04 18:53 | 38.33874 | 114.15019 | 22282 ft | 421 kts | 182° |
| 2026-05-04 18:54 | 38.30931 | 114.14874 | 22841 ft | 426 kts | 184° |
| 2026-05-04 18:54 | 38.27962 | 114.14660 | 23393 ft | 430 kts | 184° |
| 2026-05-04 18:54 | 38.24965 | 114.14405 | 23877 ft | 433 kts | 185° |
| 2026-05-04 18:54 | 38.21949 | 114.14132 | 24373 ft | 436 kts | 185° |
| 2026-05-04 18:55 | 38.18913 | 114.13852 | 24864 ft | 439 kts | 185° |
| 2026-05-04 18:55 | 38.12776 | 114.13287 | 25787 ft | 445 kts | 185° |
| 2026-05-04 18:55 | 38.09676 | 114.13003 | 26242 ft | 448 kts | 185° |
| 2026-05-04 18:56 | 38.06555 | 114.12719 | 26686 ft | 451 kts | 184° |
| 2026-05-04 18:56 | 38.03414 | 114.12432 | 27121 ft | 454 kts | 184° |
| 2026-05-04 18:56 | 38.00252 | 114.12145 | 27548 ft | 457 kts | 184° |
| 2026-05-04 18:56 | 37.97075 | 114.11856 | 27966 ft | 460 kts | 184° |
| 2026-05-04 18:57 | 37.93876 | 114.11566 | 28372 ft | 462 kts | 184° |
| 2026-05-04 18:57 | 37.90657 | 114.11275 | 28772 ft | 465 kts | 184° |
| 2026-05-04 18:57 | 37.87420 | 114.10982 | 29163 ft | 467 kts | 184° |
| 2026-05-04 18:57 | 37.84169 | 114.10688 | 29535 ft | 470 kts | 184° |
| 2026-05-04 18:58 | 37.80893 | 114.10393 | 29831 ft | 475 kts | 184° |
| 2026-05-04 18:58 | 37.77573 | 114.10093 | 29929 ft | 483 kts | 184° |
| 2026-05-04 18:58 | 37.70763 | 114.09481 | 30101 ft | 497 kts | 184° |
| 2026-05-04 18:59 | 37.67302 | 114.09170 | 30302 ft | 499 kts | 184° |
| 2026-05-04 18:59 | 37.63843 | 114.08860 | 30622 ft | 498 kts | 184° |
| 2026-05-04 18:59 | 37.60391 | 114.08550 | 30952 ft | 497 kts | 184° |
| 2026-05-04 18:59 | 37.56936 | 114.08241 | 31303 ft | 496 kts | 184° |
| 2026-05-04 19:00 | 37.53496 | 114.07934 | 31633 ft | 496 kts | 184° |
| 2026-05-04 19:00 | 37.50059 | 114.07627 | 31967 ft | 495 kts | 184° |
| 2026-05-04 19:00 | 37.46631 | 114.07321 | 32289 ft | 494 kts | 184° |
| 2026-05-04 19:00 | 37.43202 | 114.07015 | 32602 ft | 493 kts | 184° |
| 2026-05-04 19:01 | 37.39782 | 114.06711 | 32921 ft | 492 kts | 184° |
| 2026-05-04 19:01 | 37.36367 | 114.06407 | 33213 ft | 492 kts | 184° |
| 2026-05-04 19:01 | 37.32952 | 114.06103 | 33517 ft | 491 kts | 184° |
| 2026-05-04 19:01 | 37.29544 | 114.05800 | 33812 ft | 491 kts | 184° |
| 2026-05-04 19:02 | 37.26142 | 114.05499 | 34056 ft | 490 kts | 185° |
| 2026-05-04 19:02 | 37.22740 | 114.05197 | 34288 ft | 490 kts | 185° |
| 2026-05-04 19:02 | 37.19344 | 114.04896 | 34501 ft | 490 kts | 185° |
| 2026-05-04 19:02 | 37.15947 | 114.04596 | 34721 ft | 489 kts | 185° |
| 2026-05-04 19:03 | 37.12596 | 114.04299 | 34936 ft | 489 kts | 185° |
| 2026-05-04 19:03 | 37.09202 | 114.03999 | 35142 ft | 489 kts | 185° |
| 2026-05-04 19:03 | 37.05812 | 114.03700 | 35344 ft | 489 kts | 185° |
| 2026-05-04 19:03 | 37.02419 | 114.03400 | 35548 ft | 488 kts | 185° |
| 2026-05-04 19:04 | 36.99034 | 114.03102 | 35743 ft | 488 kts | 185° |
| 2026-05-04 19:04 | 36.95647 | 114.02804 | 35930 ft | 488 kts | 186° |
| 2026-05-04 19:04 | 36.92257 | 114.02506 | 36096 ft | 488 kts | 186° |
| 2026-05-04 19:04 | 36.88868 | 114.02209 | 36254 ft | 488 kts | 186° |
| 2026-05-04 19:05 | 36.85483 | 114.01912 | 36428 ft | 488 kts | 186° |
| 2026-05-04 19:05 | 36.82094 | 114.01615 | 36598 ft | 488 kts | 186° |
| 2026-05-04 19:05 | 36.78708 | 114.01318 | 36766 ft | 488 kts | 186° |
| 2026-05-04 19:05 | 36.75324 | 114.01022 | 36938 ft | 488 kts | 186° |
| 2026-05-04 19:06 | 36.71936 | 114.00726 | 37109 ft | 487 kts | 186° |
| 2026-05-04 19:06 | 36.68555 | 114.00431 | 37269 ft | 487 kts | 186° |
| 2026-05-04 19:06 | 36.65171 | 114.00136 | 37429 ft | 487 kts | 186° |
| 2026-05-04 19:06 | 36.61790 | 113.99841 | 37579 ft | 487 kts | 186° |
| 2026-05-04 19:07 | 36.58411 | 113.99547 | 37738 ft | 487 kts | 186° |
| 2026-05-04 19:07 | 36.55030 | 113.99253 | 37880 ft | 487 kts | 186° |
| 2026-05-04 19:07 | 36.51654 | 113.98959 | 37983 ft | 487 kts | 186° |
| 2026-05-04 19:07 | 36.48278 | 113.98666 | 37991 ft | 486 kts | 187° |
| 2026-05-04 19:08 | 36.41538 | 113.98080 | 37992 ft | 485 kts | 187° |
| 2026-05-04 19:08 | 36.34801 | 113.97496 | 37995 ft | 485 kts | 187° |
| 2026-05-04 19:09 | 36.28070 | 113.96914 | 37993 ft | 485 kts | 187° |
| 2026-05-04 19:09 | 36.21338 | 113.96331 | 37998 ft | 485 kts | 187° |
| 2026-05-04 19:10 | 36.14649 | 113.95755 | 37996 ft | 485 kts | 187° |
| 2026-05-04 19:10 | 36.07916 | 113.95175 | 37994 ft | 484 kts | 187° |
| 2026-05-04 19:11 | 36.01196 | 113.94598 | 37999 ft | 484 kts | 187° |
| 2026-05-04 19:11 | 35.94471 | 113.94021 | 38000 ft | 484 kts | 187° |
| 2026-05-04 19:12 | 35.84385 | 113.93157 | 37942 ft | 484 kts | 187° |
| 2026-05-04 19:12 | 35.81051 | 113.92873 | 37673 ft | 476 kts | 187° |
| 2026-05-04 19:13 | 35.77787 | 113.92597 | 37409 ft | 465 kts | 187° |
| 2026-05-04 19:13 | 35.74590 | 113.92325 | 37139 ft | 458 kts | 187° |
| 2026-05-04 19:13 | 35.71398 | 113.92050 | 36880 ft | 464 kts | 187° |
| 2026-05-04 19:13 | 35.68157 | 113.91770 | 36621 ft | 468 kts | 187° |
| 2026-05-04 19:14 | 35.64913 | 113.91492 | 36361 ft | 467 kts | 186° |
| 2026-05-04 19:14 | 35.61669 | 113.91216 | 35924 ft | 468 kts | 186° |
| 2026-05-04 19:14 | 35.58418 | 113.90937 | 35218 ft | 470 kts | 186° |
| 2026-05-04 19:14 | 35.55138 | 113.90655 | 34374 ft | 474 kts | 186° |
| 2026-05-04 19:15 | 35.51833 | 113.90371 | 33404 ft | 479 kts | 185° |
| 2026-05-04 19:15 | 35.48499 | 113.90087 | 32565 ft | 479 kts | 185° |
| 2026-05-04 19:15 | 35.45169 | 113.89805 | 31701 ft | 480 kts | 185° |
| 2026-05-04 19:15 | 35.41838 | 113.89525 | 30912 ft | 480 kts | 185° |
| 2026-05-04 19:16 | 35.38531 | 113.89246 | 30338 ft | 474 kts | 185° |
| 2026-05-04 19:16 | 35.35252 | 113.88970 | 29629 ft | 471 kts | 185° |
| 2026-05-04 19:16 | 35.32000 | 113.88696 | 29023 ft | 465 kts | 185° |
| 2026-05-04 19:16 | 35.28797 | 113.88426 | 28414 ft | 459 kts | 185° |
| 2026-05-04 19:17 | 35.25627 | 113.88159 | 27800 ft | 454 kts | 185° |
| 2026-05-04 19:17 | 35.22494 | 113.87895 | 27185 ft | 449 kts | 185° |
| 2026-05-04 19:17 | 35.19387 | 113.87633 | 26589 ft | 445 kts | 185° |
| 2026-05-04 19:17 | 35.16353 | 113.87378 | 25996 ft | 441 kts | 185° |
| 2026-05-04 19:18 | 35.13304 | 113.87122 | 25401 ft | 437 kts | 185° |
| 2026-05-04 19:18 | 35.10278 | 113.86867 | 24802 ft | 434 kts | 185° |
| 2026-05-04 19:18 | 35.07272 | 113.86614 | 24178 ft | 432 kts | 185° |
| 2026-05-04 19:18 | 35.04288 | 113.86364 | 23586 ft | 429 kts | 185° |
| 2026-05-04 19:19 | 35.01316 | 113.86115 | 22963 ft | 425 kts | 185° |
| 2026-05-04 19:19 | 34.98381 | 113.85870 | 22378 ft | 420 kts | 185° |
| 2026-05-04 19:19 | 34.95483 | 113.85628 | 21784 ft | 416 kts | 185° |
| 2026-05-04 19:19 | 34.92608 | 113.85389 | 21199 ft | 412 kts | 185° |
| 2026-05-04 19:20 | 34.90721 | 113.85232 | 20817 ft | 409 kts | 185° |
| 2026-05-04 19:20 | 34.87894 | 113.84996 | 20232 ft | 406 kts | 185° |
| 2026-05-04 19:20 | 34.85088 | 113.84763 | 19656 ft | 402 kts | 185° |
| 2026-05-04 19:20 | 34.81363 | 113.84452 | 18858 ft | 399 kts | 185° |
| 2026-05-04 19:21 | 34.79534 | 113.84300 | 18445 ft | 399 kts | 185° |
| 2026-05-04 19:21 | 34.76775 | 113.84071 | 17881 ft | 395 kts | 185° |
| 2026-05-04 19:21 | 34.73135 | 113.83768 | 17115 ft | 389 kts | 185° |
| 2026-05-04 19:21 | 34.70452 | 113.83545 | 16558 ft | 384 kts | 185° |
| 2026-05-04 19:22 | 34.68692 | 113.83398 | 16198 ft | 381 kts | 185° |
| 2026-05-04 19:22 | 34.66064 | 113.83180 | 15689 ft | 376 kts | 185° |
| 2026-05-04 19:22 | 34.63497 | 113.82648 | 14894 ft | 376 kts | 200° |
| 2026-05-04 19:22 | 34.61206 | 113.81166 | 14321 ft | 370 kts | 219° |
| 2026-05-04 19:23 | 34.59522 | 113.78915 | 14164 ft | 353 kts | 238° |
| 2026-05-04 19:23 | 34.58526 | 113.76268 | 14031 ft | 338 kts | 250° |
| 2026-05-04 19:23 | 34.57780 | 113.73620 | 13828 ft | 327 kts | 247° |
| 2026-05-04 19:23 | 34.56555 | 113.71288 | 13026 ft | 333 kts | 227° |
| 2026-05-04 19:24 | 34.54875 | 113.69298 | 12123 ft | 343 kts | 223° |
| 2026-05-04 19:24 | 34.53102 | 113.67302 | 11225 ft | 351 kts | 222° |
| 2026-05-04 19:24 | 34.51319 | 113.65320 | 10916 ft | 341 kts | 222° |
| 2026-05-04 19:24 | 34.49814 | 113.63189 | 10761 ft | 327 kts | 240° |
| 2026-05-04 19:25 | 34.49119 | 113.60669 | 10580 ft | 308 kts | 263° |
| 2026-05-04 19:25 | 34.49265 | 113.58164 | 10409 ft | 292 kts | 284° |
| 2026-05-04 19:25 | 34.49984 | 113.55944 | 10257 ft | 275 kts | 291° |
| 2026-05-04 19:25 | 34.50705 | 113.53881 | 10117 ft | 257 kts | 290° |
| 2026-05-04 19:26 | 34.51368 | 113.51925 | 9943 ft | 247 kts | 290° |
| 2026-05-04 19:26 | 34.52011 | 113.50006 | 9570 ft | 245 kts | 290° |
| 2026-05-04 19:26 | 34.52720 | 113.48129 | 9172 ft | 246 kts | 303° |
| 2026-05-04 19:26 | 34.54005 | 113.46772 | 8772 ft | 249 kts | 334° |
| 2026-05-04 19:27 | 34.55693 | 113.46367 | 8384 ft | 250 kts | 5° |
| 2026-05-04 19:27 | 34.57357 | 113.46931 | 8007 ft | 249 kts | 25° |
| 2026-05-04 19:27 | 34.58907 | 113.47871 | 7642 ft | 249 kts | 28° |
| 2026-05-04 19:27 | 34.60438 | 113.48837 | 7288 ft | 248 kts | 27° |
| 2026-05-04 19:28 | 34.61988 | 113.49738 | 6949 ft | 246 kts | 25° |
| 2026-05-04 19:28 | 34.63460 | 113.50772 | 6584 ft | 245 kts | 46° |
| 2026-05-04 19:28 | 34.64243 | 113.52568 | 6040 ft | 243 kts | 86° |
| 2026-05-04 19:28 | 34.64006 | 113.54543 | 5649 ft | 236 kts | 113° |
| 2026-05-04 19:29 | 34.63351 | 113.56366 | 5289 ft | 235 kts | 118° |
| 2026-05-04 19:29 | 34.62710 | 113.58187 | 4954 ft | 234 kts | 115° |
| 2026-05-04 19:29 | 34.62096 | 113.60010 | 4628 ft | 232 kts | 116° |
| 2026-05-04 19:29 | 34.61486 | 113.61817 | 4304 ft | 230 kts | 116° |
| 2026-05-04 19:30 | 34.60899 | 113.63621 | 3994 ft | 228 kts | 118° |
| 2026-05-04 19:30 | 34.60283 | 113.65364 | 3705 ft | 227 kts | 116° |
| 2026-05-04 19:30 | 34.59701 | 113.67102 | 3430 ft | 216 kts | 117° |
| 2026-05-04 19:30 | 34.59160 | 113.68703 | 3153 ft | 195 kts | 118° |
| 2026-05-04 19:31 | 34.58671 | 113.70151 | 2897 ft | 177 kts | 120° |
| 2026-05-04 19:31 | 34.58223 | 113.71474 | 2690 ft | 161 kts | 120° |
| 2026-05-04 19:31 | 34.57816 | 113.72677 | 2481 ft | 148 kts | 122° |
| 2026-05-04 19:31 | 34.57428 | 113.73811 | 2296 ft | 145 kts | 123° |
| 2026-05-04 19:32 | 34.57047 | 113.74937 | 2105 ft | 143 kts | 123° |
| 2026-05-04 19:32 | 34.56667 | 113.76056 | 1907 ft | 143 kts | 123° |
| 2026-05-04 19:32 | 34.56284 | 113.77182 | 1735 ft | 145 kts | 123° |
| 2026-05-04 19:32 | 34.55904 | 113.78309 | 1537 ft | 144 kts | 123° |
| 2026-05-04 19:33 | 34.55522 | 113.79431 | 1346 ft | 143 kts | 121° |
| 2026-05-04 19:33 | 34.55141 | 113.80536 | 1143 ft | 139 kts | 118° |
| 2026-05-04 19:33 | 34.54783 | 113.81617 | 941 ft | 134 kts | 115° |
| 2026-05-04 19:33 | 34.54431 | 113.82668 | 785 ft | 134 kts | 115° |
| 2026-05-04 19:34 | 34.54075 | 113.83717 | 600 ft | 134 kts | 114° |
| 2026-05-04 19:34 | 34.53733 | 113.84762 | 503 ft | 131 kts | 113° |
| 2026-05-04 19:34 | 34.53435 | 113.85578 | 496 ft | 77 kts | 112° |
| 2026-05-04 19:34 | 34.53284 | 113.86023 | 500 ft | 40 kts | 111° |
| 2026-05-04 19:35 | 34.53159 | 113.86302 | 496 ft | 27 kts | 146° |
| 2026-05-04 19:35 | 34.53095 | 113.86371 | 499 ft | 11 kts | 139° |
| 2026-05-04 19:35 | 34.53065 | 113.86400 | 499 ft | 0 kts | 143° |
| 2026-05-04 19:36 | 34.53060 | 113.86404 | 500 ft | 4 kts | 144° |
| 2026-05-04 19:36 | 34.53019 | 113.86427 | 500 ft | 8 kts | 173° |
| 2026-05-04 19:36 | 34.52962 | 113.86408 | 501 ft | 10 kts | 201° |
| 2026-05-04 19:36 | 34.52908 | 113.86313 | 502 ft | 17 kts | 287° |
| 2026-05-04 19:37 | 34.52957 | 113.86167 | 502 ft | 20 kts | 292° |
| 2026-05-04 19:37 | 34.53017 | 113.85993 | 502 ft | 25 kts | 293° |
| 2026-05-04 19:37 | 34.53055 | 113.85879 | 502 ft | 12 kts | 292° |
| 2026-05-04 19:37 | 34.53117 | 113.85687 | 502 ft | 31 kts | 290° |
| 2026-05-04 19:38 | 34.53098 | 113.85551 | 502 ft | 16 kts | 203° |
| 2026-05-04 19:38 | 34.52919 | 113.85463 | 502 ft | 46 kts | 202° |
| 2026-05-04 19:38 | 34.52671 | 113.85341 | 502 ft | 10 kts | 202° |
| 2026-05-04 19:38 | 34.52634 | 113.85332 | 502 ft | 2 kts | 142° |
| 2026-05-04 19:39 | 34.52617 | 113.85358 | 502 ft | 6 kts | 116° |
| 2026-05-04 19:39 | 34.52605 | 113.85395 | 502 ft | 0 kts | 110° |
| 2026-05-04 19:39 | 34.52605 | 113.85396 | 502 ft | 0 kts | 112° |
| 2026-05-04 19:39 | 34.52602 | 113.85404 | 502 ft | 2 kts | 111° |
| 2026-05-04 19:40 | 34.52601 | 113.85408 | 502 ft | 0 kts | 111° |
| 2026-05-04 19:40 | 34.52601 | 113.85407 | 502 ft | 0 kts | 111° |